»·PEaware :: RAP61 KPSP-KTOA

RAP61 :: KPSP-KTOA

FLIGHT INFORMATION

Flight Status: Arrived
Operator: Unknown
More flights by this operator :: More flights under this callsign
Pilot: Mike N. (15036)
Aircraft: BELL TEXTRON MODEL 412
(B412)
More flights by this aircraft type
Origin: KPSP Palm Springs Intl
United States
Destination: KTOA Zamperini
United States
More flights between these airports :: More routes between these airports
Route: +CATH1 PSP V388 ACINS V283 SLI
File this flight plan on PilotEdge
Remarks:
Altitude:
(Current/Filed)
11,000ft
Speed:
(Current/Filed)
125kts
Departed: 07-Jan-18 08:06 PM
Arrived: 07-Jan-18 09:05 PM
Distance/Time
Traveled:
91nm/0:59
Distance/Time
To Go:
Arrived

Flight Plot

Page will automatically refresh every two minutes.


Map Options




Map Legend


Flown Route
Filed Route
Departure Airport
Arrival Airport
Navaid (VOR, NDB)
Fix

Horizontal Profiles

Position Reports

Time Latitude Longitude Heading Altitude Ground
Speed
07-Jan-18 19:46 33.827781 -116.508859 270 482ft 0kts
07-Jan-18 19:47 33.827781 -116.508859 270 482ft 0kts
07-Jan-18 19:48 33.827781 -116.508859 270 482ft 0kts
07-Jan-18 19:49 33.827781 -116.508859 270 482ft 0kts
07-Jan-18 19:50 33.827781 -116.508859 270 482ft 0kts
07-Jan-18 19:51 33.827781 -116.508859 270 482ft 0kts
07-Jan-18 19:52 33.827781 -116.508859 270 482ft 0kts
07-Jan-18 19:53 33.827781 -116.508859 270 482ft 0kts
07-Jan-18 19:54 33.827781 -116.508859 270 482ft 0kts
07-Jan-18 19:55 33.827781 -116.508859 270 482ft 0kts
07-Jan-18 19:56 33.827781 -116.508859 270 482ft 0kts
07-Jan-18 19:57 33.827781 -116.508859 270 482ft 0kts
07-Jan-18 19:58 33.827781 -116.508859 270 482ft 0kts
07-Jan-18 19:59 33.827781 -116.508859 270 482ft 0kts
07-Jan-18 20:00 33.827781 -116.508859 270 482ft 0kts
07-Jan-18 20:01 33.827781 -116.508859 270 482ft 0kts
07-Jan-18 20:02 33.827781 -116.508859 270 482ft 0kts
07-Jan-18 20:03 33.827781 -116.508859 270 482ft 0kts
07-Jan-18 20:04 33.827781 -116.508859 270 482ft 0kts
07-Jan-18 20:05 33.827781 -116.508859 270 482ft 0kts
07-Jan-18 20:06 33.827781 -116.508859 270 482ft 0kts
07-Jan-18 20:07 33.827781 -116.508859 270 482ft 0kts
07-Jan-18 20:08 33.827781 -116.508859 270 482ft 0kts
07-Jan-18 20:09 33.827781 -116.508859 270 482ft 0kts
07-Jan-18 20:10 33.827800 -116.508876 130 484ft 0kts
07-Jan-18 20:11 33.827797 -116.508905 111 491ft 0kts
07-Jan-18 20:12 33.827291 -116.507551 144 559ft 51kts
07-Jan-18 20:13 33.816986 -116.490019 119 1804ft 72kts
07-Jan-18 20:14 33.811315 -116.473883 105 2833ft 74kts
07-Jan-18 20:15 33.802183 -116.446634 109 4709ft 80kts
07-Jan-18 20:16 33.809337 -116.423031 49 6288ft 81kts
07-Jan-18 20:17 33.821537 -116.406690 40 7570ft 79kts
07-Jan-18 20:18 33.839560 -116.385238 22 9313ft 81kts
07-Jan-18 20:19 33.851484 -116.400923 284 9990ft 109kts
07-Jan-18 20:20 33.862397 -116.447666 284 9999ft 122kts
07-Jan-18 20:21 33.872510 -116.480732 288 9957ft 128kts
07-Jan-18 20:22 33.884735 -116.519089 283 10109ft 118kts
07-Jan-18 20:23 33.894223 -116.560143 284 10018ft 131kts
07-Jan-18 20:24 33.906646 -116.601339 289 9971ft 130kts
07-Jan-18 20:25 33.920961 -116.641219 288 9966ft 129kts
07-Jan-18 20:26 33.932422 -116.681864 284 9900ft 123kts
07-Jan-18 20:27 33.944644 -116.721522 289 9964ft 135kts
07-Jan-18 20:28 33.951248 -116.763363 268 10116ft 121kts
07-Jan-18 20:29 33.949971 -116.805274 263 10093ft 126kts
07-Jan-18 20:30 33.947060 -116.847517 265 10024ft 127kts
07-Jan-18 20:31 33.946550 -116.889954 268 10054ft 126kts
07-Jan-18 20:32 33.947523 -116.932129 266 10084ft 125kts
07-Jan-18 20:33 33.943520 -116.973621 259 10049ft 124kts
07-Jan-18 20:34 33.936519 -117.014186 257 9998ft 124kts
07-Jan-18 20:35 33.934995 -117.058833 275 9426ft 137kts
07-Jan-18 20:36 33.936337 -117.103541 268 8973ft 133kts
07-Jan-18 20:37 33.933808 -117.149331 256 8342ft 141kts
07-Jan-18 20:38 33.902870 -117.168331 186 8135ft 131kts
07-Jan-18 20:39 33.865915 -117.170847 184 7996ft 137kts
07-Jan-18 20:40 33.828506 -117.175313 189 7994ft 133kts
07-Jan-18 20:41 33.792174 -117.182492 189 8045ft 131kts
07-Jan-18 20:42 33.775251 -117.214426 270 8025ft 126kts
07-Jan-18 20:43 33.774764 -117.255982 269 8095ft 128kts
07-Jan-18 20:44 33.774834 -117.299652 272 7973ft 132kts
07-Jan-18 20:45 33.776855 -117.343001 273 7982ft 125kts
07-Jan-18 20:46 33.778142 -117.386136 271 7981ft 131kts
07-Jan-18 20:47 33.778730 -117.429834 269 7967ft 128kts
07-Jan-18 20:48 33.778007 -117.473119 268 7977ft 129kts
07-Jan-18 20:49 33.777090 -117.516333 268 7963ft 129kts
07-Jan-18 20:50 33.777034 -117.556845 270 7963ft 129kts
07-Jan-18 20:51 33.777387 -117.598608 271 7417ft 122kts
07-Jan-18 20:52 33.780310 -117.640679 274 6639ft 129kts
07-Jan-18 20:53 33.782396 -117.684033 270 5970ft 127kts
07-Jan-18 20:54 33.782770 -117.725376 269 6049ft 122kts
07-Jan-18 20:55 33.782613 -117.767460 269 5942ft 128kts
07-Jan-18 20:56 33.781921 -117.809836 268 5923ft 127kts
07-Jan-18 20:57 33.781031 -117.851921 270 5668ft 129kts
07-Jan-18 20:58 33.781078 -117.894964 270 4897ft 130kts
07-Jan-18 20:59 33.782063 -117.939310 269 4001ft 135kts
07-Jan-18 21:00 33.781999 -117.982208 268 3453ft 127kts
07-Jan-18 21:01 33.783124 -118.024609 271 3012ft 128kts
07-Jan-18 21:02 33.777454 -118.064497 232 2881ft 126kts
07-Jan-18 21:03 33.756970 -118.098132 231 2198ft 120kts
07-Jan-18 21:04 33.738072 -118.131481 233 2047ft 120kts
07-Jan-18 21:05 33.718260 -118.162881 234 2075ft 121kts
07-Jan-18 21:06 33.709135 -118.196911 303 2027ft 126kts
07-Jan-18 21:07 33.731850 -118.227475 305 2007ft 115kts
07-Jan-18 21:08 33.751597 -118.259805 302 1804ft 124kts
07-Jan-18 21:09 33.771273 -118.291386 305 1170ft 112kts
07-Jan-18 21:10 33.791470 -118.320240 304 486ft 113kts
07-Jan-18 21:11 33.800196 -118.336319 223 168ft 24kts
07-Jan-18 21:12 33.798840 -118.337235 219 108ft 0kts
07-Jan-18 21:13 33.798840 -118.337235 219 108ft 0kts
07-Jan-18 21:14 33.798840 -118.337235 219 108ft 0kts
07-Jan-18 21:15 33.798840 -118.337235 219 108ft 0kts
07-Jan-18 21:16 33.798840 -118.337235 219 108ft 0kts
07-Jan-18 21:17 33.798840 -118.337235 219 108ft 0kts
07-Jan-18 21:18 33.798840 -118.337235 219 108ft 0kts
07-Jan-18 21:19 33.798840 -118.337235 219 108ft 0kts
07-Jan-18 21:20 33.798840 -118.337235 219 108ft 0kts
07-Jan-18 21:21 33.798840 -118.337235 219 108ft 0kts
07-Jan-18 21:22 33.798840 -118.337235 219 108ft 0kts
07-Jan-18 21:23 33.798840 -118.337235 219 108ft 0kts
07-Jan-18 21:24 33.798840 -118.337235 219 108ft 0kts
07-Jan-18 21:25 33.798840 -118.337235 219 108ft 0kts

Navigation Log

Ident Type
1. KPSP Airport
2. PSP Navaid
3. DEWAY Fix
4. ACINS Fix
5. HDF Navaid
6. DEJAY Fix
7. KAYOH Fix
8. JOGIT Fix
9. SLI Navaid
10. KTOA Airport